createdAt,value
2023-05-10T00:00:19.480Z,0
2023-05-10T00:01:19.830Z,0
2023-05-10T00:02:20.146Z,0
2023-05-10T00:03:20.589Z,0
2023-05-10T00:04:21.508Z,0
2023-05-10T00:05:22.056Z,0
2023-05-10T00:06:22.232Z,0
2023-05-10T00:07:22.396Z,0
2023-05-10T00:08:22.573Z,0
2023-05-10T00:09:22.811Z,0
2023-05-10T00:10:22.972Z,0
2023-05-10T00:11:23.360Z,0
2023-05-10T00:12:23.574Z,0
2023-05-10T00:13:23.796Z,0
2023-05-10T00:14:24.411Z,0
2023-05-10T00:15:24.570Z,0
2023-05-10T00:16:24.772Z,0
2023-05-10T00:17:25.197Z,0
2023-05-10T00:18:25.446Z,0
2023-05-10T00:19:25.594Z,0
2023-05-10T00:20:25.759Z,0
2023-05-10T00:21:25.948Z,0
2023-05-10T00:22:26.111Z,0
2023-05-10T00:23:26.286Z,0
2023-05-10T00:24:26.446Z,0
2023-05-10T00:25:26.607Z,0
2023-05-10T00:26:26.793Z,0
2023-05-10T00:27:26.988Z,0
2023-05-10T00:28:27.138Z,0
2023-05-10T00:29:27.299Z,0
2023-05-10T00:30:27.462Z,0
2023-05-10T00:31:27.627Z,0
2023-05-10T00:32:28.011Z,0
2023-05-10T00:33:28.249Z,0
2023-05-10T00:34:28.410Z,0
2023-05-10T00:35:28.579Z,0
2023-05-10T00:36:28.753Z,0
2023-05-10T00:37:28.901Z,0
2023-05-10T00:38:29.100Z,0
2023-05-10T00:39:29.259Z,0
2023-05-10T00:40:29.453Z,0
2023-05-10T00:41:29.603Z,0
2023-05-10T00:42:29.757Z,0
2023-05-10T00:43:29.913Z,0
2023-05-10T00:44:30.101Z,0
2023-05-10T00:45:30.246Z,0
2023-05-10T00:46:30.485Z,0
2023-05-10T00:47:31.159Z,0
2023-05-10T00:48:31.574Z,0
2023-05-10T00:49:31.753Z,0
2023-05-10T00:50:31.937Z,0
2023-05-10T00:51:32.126Z,0
2023-05-10T00:52:32.318Z,0
2023-05-10T00:53:32.473Z,0
2023-05-10T00:54:32.663Z,0
2023-05-10T00:55:32.822Z,0
2023-05-10T00:56:32.980Z,0
2023-05-10T00:57:33.151Z,0
2023-05-10T00:58:33.317Z,0
2023-05-10T00:59:33.477Z,0
2023-05-10T01:00:33.625Z,0
2023-05-10T01:01:33.802Z,0
2023-05-10T01:02:34.176Z,0
2023-05-10T01:03:34.644Z,0
2023-05-10T01:04:35.085Z,0
2023-05-10T01:05:35.339Z,0
2023-05-10T01:06:35.501Z,0
2023-05-10T01:07:35.644Z,0
2023-05-10T01:08:35.798Z,0
2023-05-10T01:09:35.944Z,0
2023-05-10T01:10:36.099Z,0
2023-05-10T01:11:36.298Z,0
2023-05-10T01:12:36.494Z,0
2023-05-10T01:13:36.828Z,0
2023-05-10T01:14:36.992Z,0
2023-05-10T01:15:37.223Z,0
2023-05-10T01:16:37.504Z,0
2023-05-10T01:17:37.712Z,0
2023-05-10T01:18:38.094Z,0
2023-05-10T01:19:38.252Z,0
2023-05-10T01:20:38.398Z,0
2023-05-10T01:21:38.564Z,0
2023-05-10T01:22:38.754Z,0
2023-05-10T01:23:38.957Z,0
2023-05-10T01:24:39.111Z,0
2023-05-10T01:25:39.299Z,0
2023-05-10T01:26:39.474Z,0
2023-05-10T01:27:39.632Z,0
2023-05-10T01:28:39.854Z,0
2023-05-10T01:29:40.023Z,0
2023-05-10T01:30:40.189Z,0
2023-05-10T01:31:40.412Z,0
2023-05-10T01:32:40.688Z,0
2023-05-10T01:33:40.986Z,0
2023-05-10T01:34:41.147Z,0
2023-05-10T01:35:41.295Z,0
2023-05-10T01:36:41.450Z,0
2023-05-10T01:37:41.607Z,0
2023-05-10T01:38:41.764Z,0
2023-05-10T01:39:41.933Z,0
2023-05-10T01:40:42.102Z,0
2023-05-10T01:41:42.288Z,0
2023-05-10T01:42:42.472Z,0
2023-05-10T01:43:42.648Z,0
2023-05-10T01:44:42.806Z,0
2023-05-10T01:45:42.961Z,0
2023-05-10T01:46:43.133Z,0
2023-05-10T01:47:43.504Z,0
2023-05-10T01:48:43.802Z,0
2023-05-10T01:49:43.951Z,0
2023-05-10T01:50:44.101Z,0
2023-05-10T01:51:44.318Z,0
2023-05-10T01:52:44.497Z,0
2023-05-10T01:53:44.652Z,0
2023-05-10T01:54:44.825Z,0
2023-05-10T01:55:44.993Z,0
2023-05-10T01:56:45.228Z,0
2023-05-10T01:57:45.390Z,0
2023-05-10T01:58:45.561Z,0
2023-05-10T01:59:45.770Z,0
2023-05-10T02:00:45.984Z,0
2023-05-10T02:01:46.228Z,0
2023-05-10T02:02:46.465Z,0
2023-05-10T02:03:46.812Z,0
2023-05-10T02:04:47.121Z,0
2023-05-10T02:05:47.289Z,0
2023-05-10T02:06:47.437Z,0
2023-05-10T02:07:47.604Z,0
2023-05-10T02:08:47.760Z,0
2023-05-10T02:09:47.907Z,0
2023-05-10T02:10:48.059Z,0
2023-05-10T02:11:48.228Z,0
2023-05-10T02:12:48.424Z,0
2023-05-10T02:13:48.710Z,0
2023-05-10T02:14:48.872Z,0
2023-05-10T02:15:49.145Z,0
2023-05-10T02:16:49.310Z,0
2023-05-10T02:17:49.580Z,0
2023-05-10T02:18:50.006Z,0
2023-05-10T02:19:50.152Z,0
2023-05-10T02:20:50.315Z,0
2023-05-10T02:21:50.472Z,0
2023-05-10T02:22:50.634Z,0
2023-05-10T02:23:50.952Z,0
2023-05-10T02:24:51.161Z,0
2023-05-10T02:25:51.311Z,0
2023-05-10T02:26:51.475Z,0
2023-05-10T02:27:51.647Z,0
2023-05-10T02:28:51.813Z,0
2023-05-10T02:29:51.971Z,0
2023-05-10T02:30:52.134Z,0
2023-05-10T02:31:52.316Z,0
2023-05-10T02:32:52.634Z,0
2023-05-10T02:33:52.923Z,0
2023-05-10T02:34:53.120Z,0
2023-05-10T02:35:53.294Z,0
2023-05-10T02:36:53.449Z,0
2023-05-10T02:37:53.618Z,0
2023-05-10T02:38:53.783Z,0
2023-05-10T02:39:53.963Z,0
2023-05-10T02:40:54.113Z,0
2023-05-10T02:41:54.282Z,0
2023-05-10T02:42:54.460Z,0
2023-05-10T02:43:54.615Z,0
2023-05-10T02:44:54.757Z,0
2023-05-10T02:45:54.932Z,0
2023-05-10T02:46:55.176Z,0
2023-05-10T02:47:55.422Z,0
2023-05-10T02:48:55.768Z,0
2023-05-10T02:49:55.930Z,0
2023-05-10T02:50:56.080Z,0
2023-05-10T02:51:56.263Z,0
2023-05-10T02:52:56.448Z,0
2023-05-10T02:53:56.596Z,0
2023-05-10T02:54:56.751Z,0
2023-05-10T02:55:56.934Z,0
2023-05-10T02:56:57.086Z,0
2023-05-10T02:57:57.225Z,0
2023-05-10T02:58:57.400Z,0
2023-05-10T02:59:57.587Z,0
2023-05-10T03:00:57.748Z,0
2023-05-10T03:01:57.954Z,0
2023-05-10T03:02:58.260Z,0
2023-05-10T03:03:58.618Z,0
2023-05-10T03:04:58.806Z,0
2023-05-10T03:05:59.522Z,0
2023-05-10T03:07:00.215Z,0
2023-05-10T03:08:00.452Z,0
2023-05-10T03:09:00.608Z,0
2023-05-10T03:10:00.771Z,0
2023-05-10T03:11:00.972Z,0
2023-05-10T03:12:01.129Z,0
2023-05-10T03:13:01.318Z,0
2023-05-10T03:14:01.655Z,0
2023-05-10T03:15:01.821Z,0
2023-05-10T03:16:02.049Z,0
2023-05-10T03:17:02.375Z,0
2023-05-10T03:18:02.543Z,0
2023-05-10T03:19:02.877Z,0
2023-05-10T03:20:03.033Z,0
2023-05-10T03:21:03.213Z,0
2023-05-10T03:22:03.384Z,0
2023-05-10T03:23:03.570Z,0
2023-05-10T03:24:03.735Z,0
2023-05-10T03:25:03.904Z,0
2023-05-10T03:26:04.073Z,0
2023-05-10T03:27:04.227Z,0
2023-05-10T03:28:04.389Z,0
2023-05-10T03:29:04.568Z,0
2023-05-10T03:30:04.739Z,0
2023-05-10T03:31:04.929Z,0
2023-05-10T03:32:05.221Z,0
2023-05-10T03:33:05.376Z,0
2023-05-10T03:34:05.653Z,0
2023-05-10T03:35:05.811Z,0
2023-05-10T03:36:05.963Z,0
2023-05-10T03:37:06.135Z,0
2023-05-10T03:38:06.310Z,0
2023-05-10T03:39:06.479Z,1
2023-05-10T03:40:06.646Z,2
2023-05-10T03:41:06.832Z,3
2023-05-10T03:42:06.998Z,4
2023-05-10T03:43:07.158Z,4
2023-05-10T03:44:07.329Z,6
2023-05-10T03:45:07.487Z,6
2023-05-10T03:46:07.629Z,6
2023-05-10T03:47:07.900Z,6
2023-05-10T03:48:08.231Z,8
2023-05-10T03:49:08.596Z,8
2023-05-10T03:50:09.941Z,8
2023-05-10T03:51:10.105Z,11
2023-05-10T03:52:10.296Z,11
2023-05-10T03:53:10.576Z,11
2023-05-10T03:54:10.729Z,15
2023-05-10T03:55:10.895Z,15
2023-05-10T03:56:11.060Z,20
2023-05-10T03:57:11.229Z,20
2023-05-10T03:58:11.529Z,20
2023-05-10T03:59:11.716Z,26
2023-05-10T04:00:12.266Z,26
2023-05-10T04:01:12.420Z,26
2023-05-10T04:02:12.637Z,26
2023-05-10T04:03:12.968Z,26
2023-05-10T04:04:13.558Z,26
2023-05-10T04:05:14.056Z,26
2023-05-10T04:06:14.404Z,34
2023-05-10T04:07:14.716Z,34
2023-05-10T04:08:14.884Z,34
2023-05-10T04:09:15.044Z,34
2023-05-10T04:10:15.278Z,34
2023-05-10T04:11:16.104Z,34
2023-05-10T04:12:16.264Z,34
2023-05-10T04:13:16.526Z,45
2023-05-10T04:14:16.853Z,45
2023-05-10T04:15:17.015Z,45
2023-05-10T04:16:17.284Z,59
2023-05-10T04:17:17.565Z,59
2023-05-10T04:18:17.708Z,77
2023-05-10T04:19:17.874Z,77
2023-05-10T04:20:18.206Z,77
2023-05-10T04:21:19.074Z,77
2023-05-10T04:22:19.248Z,77
2023-05-10T04:23:19.431Z,110
2023-05-10T04:24:19.607Z,110
2023-05-10T04:25:19.770Z,110
2023-05-10T04:26:19.943Z,110
2023-05-10T04:27:20.118Z,150
2023-05-10T04:28:20.276Z,150
2023-05-10T04:29:20.436Z,150
2023-05-10T04:30:20.608Z,150
2023-05-10T04:31:20.821Z,150
2023-05-10T04:32:21.415Z,150
2023-05-10T04:33:21.914Z,150
2023-05-10T04:34:22.071Z,200
2023-05-10T04:35:22.246Z,200
2023-05-10T04:36:22.415Z,200
2023-05-10T04:37:22.606Z,200
2023-05-10T04:38:22.764Z,200
2023-05-10T04:39:22.922Z,260
2023-05-10T04:40:23.089Z,260
2023-05-10T04:41:23.249Z,260
2023-05-10T04:42:23.418Z,260
2023-05-10T04:43:23.565Z,260
2023-05-10T04:44:23.706Z,339.84
2023-05-10T04:45:23.874Z,339.84
2023-05-10T04:46:24.093Z,339.84
2023-05-10T04:47:24.437Z,339.84
2023-05-10T04:48:24.701Z,339.84
2023-05-10T04:49:24.877Z,339.84
2023-05-10T04:50:25.040Z,339.84
2023-05-10T04:51:25.207Z,339.84
2023-05-10T04:52:25.369Z,339.84
2023-05-10T04:53:25.535Z,339.84
2023-05-10T04:54:25.712Z,339.84
2023-05-10T04:55:25.897Z,449.92
2023-05-10T04:56:26.053Z,449.92
2023-05-10T04:57:26.229Z,449.92
2023-05-10T04:58:26.389Z,449.92
2023-05-10T04:59:26.560Z,449.92
2023-05-10T05:00:26.740Z,449.92
2023-05-10T05:01:26.974Z,449.92
2023-05-10T05:02:27.378Z,589.76
2023-05-10T05:03:27.832Z,589.76
2023-05-10T05:04:28.263Z,589.76
2023-05-10T05:05:28.466Z,589.76
2023-05-10T05:06:28.651Z,589.76
2023-05-10T05:07:28.806Z,589.76
2023-05-10T05:08:28.983Z,589.76
2023-05-10T05:09:29.152Z,589.76
2023-05-10T05:10:29.324Z,589.76
2023-05-10T05:11:29.505Z,589.76
2023-05-10T05:12:29.668Z,589.76
2023-05-10T05:13:29.859Z,589.76
2023-05-10T05:14:30.432Z,589.76
2023-05-10T05:15:30.603Z,779.52
2023-05-10T05:16:30.788Z,779.52
2023-05-10T05:17:31.105Z,779.52
2023-05-10T05:18:31.312Z,779.52
2023-05-10T05:19:31.462Z,779.52
2023-05-10T05:20:31.647Z,1019.52
2023-05-10T05:21:31.802Z,1019.52
2023-05-10T05:22:31.957Z,1019.52
2023-05-10T05:23:32.115Z,1019.52
2023-05-10T05:24:32.279Z,1019.52
2023-05-10T05:25:32.436Z,1019.52
2023-05-10T05:26:32.604Z,1019.52
2023-05-10T05:27:32.817Z,1019.52
2023-05-10T05:28:32.989Z,1019.52
2023-05-10T05:29:33.150Z,1019.52
2023-05-10T05:30:33.326Z,1019.52
2023-05-10T05:31:33.517Z,1019.52
2023-05-10T05:32:33.800Z,1019.52
2023-05-10T05:33:34.093Z,1019.52
2023-05-10T05:34:34.238Z,1019.52
2023-05-10T05:35:34.416Z,1019.52
2023-05-10T05:36:35.881Z,1019.52
2023-05-10T05:37:37.806Z,1019.52
2023-05-10T05:38:37.965Z,1019.52
2023-05-10T05:39:38.133Z,1338.88
2023-05-10T05:40:38.311Z,1338.88
2023-05-10T05:41:38.466Z,1338.88
2023-05-10T05:42:38.630Z,1338.88
2023-05-10T05:43:38.821Z,1338.88
2023-05-10T05:44:38.974Z,1338.88
2023-05-10T05:45:39.165Z,1338.88
2023-05-10T05:46:39.508Z,1338.88
2023-05-10T05:47:39.668Z,1338.88
2023-05-10T05:48:39.989Z,1338.88
2023-05-10T05:49:40.141Z,1338.88
2023-05-10T05:50:40.305Z,1338.88
2023-05-10T05:51:40.466Z,1338.88
2023-05-10T05:52:40.618Z,1338.88
2023-05-10T05:53:40.776Z,1338.88
2023-05-10T05:54:40.924Z,1338.88
2023-05-10T05:55:41.131Z,1338.88
2023-05-10T05:56:41.327Z,1338.88
2023-05-10T05:57:41.499Z,1338.88
2023-05-10T05:58:41.667Z,1338.88
2023-05-10T05:59:41.836Z,1338.88
2023-05-10T06:00:42.000Z,1338.88
2023-05-10T06:01:42.171Z,1338.88
2023-05-10T06:02:42.516Z,1338.88
2023-05-10T06:03:43.076Z,1760
2023-05-10T06:04:44.850Z,1760
2023-05-10T06:05:45.113Z,1760
2023-05-10T06:06:45.311Z,1760
2023-05-10T06:07:45.502Z,1760
2023-05-10T06:08:45.666Z,1760
2023-05-10T06:09:45.850Z,1760
2023-05-10T06:10:46.047Z,1760
2023-05-10T06:11:46.327Z,1760
2023-05-10T06:12:46.513Z,1760
2023-05-10T06:13:46.804Z,1760
2023-05-10T06:14:46.975Z,1760
2023-05-10T06:15:47.131Z,1760
2023-05-10T06:16:47.354Z,1760
2023-05-10T06:17:47.712Z,1760
2023-05-10T06:18:48.003Z,1760
2023-05-10T06:19:48.176Z,1219.84
2023-05-10T06:20:48.354Z,1219.84
2023-05-10T06:21:48.520Z,1219.84
2023-05-10T06:22:48.692Z,1219.84
2023-05-10T06:23:49.010Z,1219.84
2023-05-10T06:24:49.251Z,1219.84
2023-05-10T06:25:49.414Z,1219.84
2023-05-10T06:26:49.570Z,1939.2
2023-05-10T06:27:52.830Z,1939.2
2023-05-10T06:28:54.122Z,1600
2023-05-10T06:29:56.718Z,1600
2023-05-10T06:31:13.780Z,1600
2023-05-10T06:32:14.089Z,1600
2023-05-10T06:33:14.258Z,1600
2023-05-10T06:34:14.426Z,1600
2023-05-10T06:35:14.623Z,1600
2023-05-10T06:36:15.262Z,2579.2
2023-05-10T06:37:15.406Z,2579.2
2023-05-10T06:38:15.568Z,2579.2
2023-05-10T06:39:15.751Z,2579.2
2023-05-10T06:40:15.905Z,3379.2
2023-05-10T06:41:16.086Z,3379.2
2023-05-10T06:42:16.237Z,3379.2
2023-05-10T06:43:16.396Z,3379.2
2023-05-10T06:44:16.577Z,3379.2
2023-05-10T06:45:17.046Z,3379.2
2023-05-10T06:46:18.252Z,3379.2
2023-05-10T06:47:18.609Z,3379.2
2023-05-10T06:48:18.864Z,3379.2
2023-05-10T06:49:19.184Z,3379.2
2023-05-10T06:50:19.328Z,3379.2
2023-05-10T06:51:19.526Z,3379.2
2023-05-10T06:52:19.687Z,3379.2
2023-05-10T06:53:19.842Z,2339.84
2023-05-10T06:54:20.018Z,2339.84
2023-05-10T06:55:20.192Z,2339.84
2023-05-10T06:56:20.374Z,2339.84
2023-05-10T06:57:31.057Z,2339.84
2023-05-10T06:58:32.510Z,2219.52
2023-05-10T06:59:32.668Z,2219.52
2023-05-10T07:00:32.905Z,2219.52
2023-05-10T07:01:33.208Z,2219.52
2023-05-10T07:02:33.674Z,2219.52
2023-05-10T07:03:34.162Z,3059.2
2023-05-10T07:04:34.389Z,3059.2
2023-05-10T07:05:34.676Z,3059.2
2023-05-10T07:06:35.622Z,3978.24
2023-05-10T07:07:35.826Z,3978.24
2023-05-10T07:08:36.063Z,3978.24
2023-05-10T07:09:36.398Z,3978.24
2023-05-10T07:10:36.556Z,3978.24
2023-05-10T07:11:36.739Z,3978.24
2023-05-10T07:12:36.941Z,3978.24
2023-05-10T07:13:37.304Z,5178.88
2023-05-10T07:14:37.605Z,5178.88
2023-05-10T07:15:37.756Z,5178.88
2023-05-10T07:16:37.929Z,5178.88
2023-05-10T07:17:38.394Z,5178.88
2023-05-10T07:18:38.932Z,5178.88
2023-05-10T07:19:39.170Z,5178.88
2023-05-10T07:20:39.353Z,5178.88
2023-05-10T07:21:39.566Z,5178.88
2023-05-10T07:22:39.723Z,5178.88
2023-05-10T07:23:39.883Z,5178.88
2023-05-10T07:24:40.076Z,5178.88
2023-05-10T07:25:40.202Z,5178.88
2023-05-10T07:26:40.350Z,5178.88
2023-05-10T07:27:40.507Z,5178.88
2023-05-10T07:28:40.661Z,5178.88
2023-05-10T07:29:40.828Z,5178.88
2023-05-10T07:30:41.085Z,5178.88
2023-05-10T07:31:41.417Z,5178.88
2023-05-10T07:32:41.657Z,3537.92
2023-05-10T07:33:41.905Z,3537.92
2023-05-10T07:34:42.057Z,3537.92
2023-05-10T07:35:42.221Z,3537.92
2023-05-10T07:36:42.455Z,2458.88
2023-05-10T07:37:42.822Z,2458.88
2023-05-10T07:38:43.269Z,2458.88
2023-05-10T07:39:43.449Z,2458.88
2023-05-10T07:40:43.639Z,2458.88
2023-05-10T07:41:43.798Z,2458.88
2023-05-10T07:42:43.982Z,2458.88
2023-05-10T07:43:44.151Z,2458.88
2023-05-10T07:44:44.307Z,2458.88
2023-05-10T07:45:44.503Z,2458.88
2023-05-10T07:46:44.757Z,2458.88
2023-05-10T07:47:44.951Z,3200
2023-05-10T07:48:45.322Z,3200
2023-05-10T07:49:45.523Z,3200
2023-05-10T07:50:45.714Z,3200
2023-05-10T07:51:45.860Z,3200
2023-05-10T07:52:46.032Z,3200
2023-05-10T07:53:46.195Z,3200
2023-05-10T07:54:46.353Z,3200
2023-05-10T07:55:46.525Z,3200
2023-05-10T07:56:46.697Z,4160
2023-05-10T07:57:46.924Z,4160
2023-05-10T07:58:47.073Z,4160
2023-05-10T07:59:47.235Z,4160
2023-05-10T08:00:47.422Z,4160
2023-05-10T08:01:47.636Z,4160
2023-05-10T08:02:48.016Z,4160
2023-05-10T08:03:48.582Z,4160
2023-05-10T08:04:49.160Z,4160
2023-05-10T08:05:49.322Z,4160
2023-05-10T08:06:49.494Z,4160
2023-05-10T08:07:49.660Z,4160
2023-05-10T08:08:49.853Z,4160
2023-05-10T08:09:50.018Z,5416.96
2023-05-10T08:10:50.200Z,5416.96
2023-05-10T08:11:50.359Z,5416.96
2023-05-10T08:12:50.512Z,5416.96
2023-05-10T08:13:50.678Z,5416.96
2023-05-10T08:14:50.877Z,5416.96
2023-05-10T08:15:51.082Z,5416.96
2023-05-10T08:16:51.444Z,5416.96
2023-05-10T08:17:51.628Z,5416.96
2023-05-10T08:18:52.003Z,5416.96
2023-05-10T08:19:52.304Z,5416.96
2023-05-10T08:20:52.452Z,5416.96
2023-05-10T08:21:52.614Z,7116.8
2023-05-10T08:22:52.784Z,7116.8
2023-05-10T08:23:52.966Z,7116.8
2023-05-10T08:24:53.176Z,7116.8
2023-05-10T08:25:53.335Z,7116.8
2023-05-10T08:26:53.513Z,7116.8
2023-05-10T08:27:53.678Z,7116.8
2023-05-10T08:28:53.844Z,7116.8
2023-05-10T08:29:54.036Z,7116.8
2023-05-10T08:30:54.446Z,7116.8
2023-05-10T08:31:54.719Z,7116.8
2023-05-10T08:32:54.888Z,7116.8
2023-05-10T08:33:55.165Z,7116.8
2023-05-10T08:34:55.340Z,7116.8
2023-05-10T08:35:55.506Z,7116.8
2023-05-10T08:36:55.695Z,7116.8
2023-05-10T08:37:55.860Z,7116.8
2023-05-10T08:38:56.068Z,9277.44
2023-05-10T08:39:56.288Z,9277.44
2023-05-10T08:40:56.485Z,9277.44
2023-05-10T08:41:56.643Z,9277.44
2023-05-10T08:42:56.797Z,9277.44
2023-05-10T08:43:56.978Z,9277.44
2023-05-10T08:44:57.136Z,9277.44
2023-05-10T08:45:57.325Z,9277.44
2023-05-10T08:46:57.781Z,9277.44
2023-05-10T08:47:58.183Z,9277.44
2023-05-10T08:48:58.431Z,9277.44
2023-05-10T08:49:58.596Z,9277.44
2023-05-10T08:50:58.763Z,9277.44
2023-05-10T08:51:58.925Z,9277.44
2023-05-10T08:52:59.082Z,9277.44
2023-05-10T08:53:59.248Z,9277.44
2023-05-10T08:54:59.457Z,9277.44
2023-05-10T08:55:59.711Z,9277.44
2023-05-10T08:56:59.880Z,9277.44
2023-05-10T08:58:00.064Z,9277.44
2023-05-10T08:59:00.213Z,9277.44
2023-05-10T09:00:00.386Z,9277.44
2023-05-10T09:01:00.587Z,9277.44
2023-05-10T09:02:00.878Z,9277.44
2023-05-10T09:03:01.038Z,9277.44
2023-05-10T09:04:01.329Z,9277.44
2023-05-10T09:05:01.807Z,9277.44
2023-05-10T09:06:02.245Z,6456.32
2023-05-10T09:07:02.448Z,6456.32
2023-05-10T09:08:02.615Z,6456.32
2023-05-10T09:09:02.825Z,6456.32
2023-05-10T09:10:02.991Z,6456.32
2023-05-10T09:11:03.178Z,6456.32
2023-05-10T09:12:03.353Z,6456.32
2023-05-10T09:13:03.529Z,6456.32
2023-05-10T09:14:03.705Z,6456.32
2023-05-10T09:15:03.864Z,6456.32
2023-05-10T09:16:13.856Z,6456.32
2023-05-10T09:17:22.885Z,6737.92
2023-05-10T09:18:24.306Z,6737.92
2023-05-10T09:19:28.367Z,7116.8
2023-05-10T09:20:28.539Z,7116.8
2023-05-10T09:21:28.694Z,7116.8
2023-05-10T09:22:28.887Z,7116.8
2023-05-10T09:23:29.052Z,7116.8
2023-05-10T09:24:29.210Z,7116.8
2023-05-10T09:25:29.347Z,7116.8
2023-05-10T09:26:29.515Z,7116.8
2023-05-10T09:27:29.713Z,7116.8
2023-05-10T09:28:29.886Z,7116.8
2023-05-10T09:29:30.051Z,7116.8
2023-05-10T09:30:30.219Z,7116.8
2023-05-10T09:31:30.528Z,7116.8
2023-05-10T09:32:31.052Z,7116.8
2023-05-10T09:33:31.245Z,7116.8
2023-05-10T09:34:31.441Z,7116.8
2023-05-10T09:35:31.671Z,7116.8
2023-05-10T09:36:31.839Z,7116.8
2023-05-10T09:37:32.012Z,7116.8
2023-05-10T09:38:32.182Z,7116.8
2023-05-10T09:39:32.337Z,7116.8
2023-05-10T09:40:32.540Z,7116.8
2023-05-10T09:41:32.771Z,7116.8
2023-05-10T09:42:32.925Z,7116.8
2023-05-10T09:43:33.081Z,7116.8
2023-05-10T09:44:33.255Z,7116.8
2023-05-10T09:45:34.154Z,7116.8
2023-05-10T09:46:39.526Z,5857.28
2023-05-10T09:47:40.189Z,5857.28
2023-05-10T09:48:40.432Z,5857.28
2023-05-10T09:49:40.589Z,5857.28
2023-05-10T09:50:40.814Z,5857.28
2023-05-10T09:51:40.971Z,5857.28
2023-05-10T09:52:41.131Z,5857.28
2023-05-10T09:53:41.283Z,5857.28
2023-05-10T09:54:41.450Z,5857.28
2023-05-10T09:55:41.607Z,5857.28
2023-05-10T09:56:41.873Z,5857.28
2023-05-10T09:57:42.122Z,5857.28
2023-05-10T09:58:42.289Z,5857.28
2023-05-10T09:59:42.444Z,5857.28
2023-05-10T10:00:42.646Z,5857.28
2023-05-10T10:01:42.864Z,5857.28
2023-05-10T10:02:43.209Z,5857.28
2023-05-10T10:03:43.467Z,5857.28
2023-05-10T10:04:43.648Z,5857.28
2023-05-10T10:05:43.870Z,6896.64
2023-05-10T10:06:44.011Z,6896.64
2023-05-10T10:07:44.405Z,6896.64
2023-05-10T10:08:44.557Z,6896.64
2023-05-10T10:09:44.723Z,6896.64
2023-05-10T10:10:44.954Z,8995.84
2023-05-10T10:11:46.248Z,8995.84
2023-05-10T10:12:46.410Z,8995.84
2023-05-10T10:13:46.576Z,8995.84
2023-05-10T10:14:46.732Z,8995.84
2023-05-10T10:15:46.991Z,8995.84
2023-05-10T10:16:55.635Z,8995.84
2023-05-10T10:18:09.307Z,7516.16
2023-05-10T10:19:09.770Z,7516.16
2023-05-10T10:20:11.856Z,7516.16
2023-05-10T10:21:12.549Z,7516.16
2023-05-10T10:22:12.731Z,7516.16
2023-05-10T10:23:13.791Z,7516.16
2023-05-10T10:24:18.075Z,7659.52
2023-05-10T10:25:18.528Z,7659.52
2023-05-10T10:26:19.785Z,7659.52
2023-05-10T10:27:19.968Z,7659.52
2023-05-10T10:28:20.142Z,7659.52
2023-05-10T10:29:20.438Z,7659.52
2023-05-10T10:30:20.633Z,7659.52
2023-05-10T10:31:20.839Z,7659.52
2023-05-10T10:32:21.130Z,7659.52
2023-05-10T10:33:28.650Z,7659.52
2023-05-10T10:34:29.737Z,9999.36
2023-05-10T10:35:29.923Z,9999.36
2023-05-10T10:36:30.104Z,9999.36
2023-05-10T10:37:30.283Z,11796.48
2023-05-10T10:38:30.455Z,11796.48
2023-05-10T10:39:30.624Z,11796.48
2023-05-10T10:40:32.772Z,11796.48
2023-05-10T10:41:35.398Z,13393.92
2023-05-10T10:42:35.566Z,13393.92
2023-05-10T10:43:35.727Z,13393.92
2023-05-10T10:44:35.912Z,13393.92
2023-05-10T10:45:36.120Z,15390.72
2023-05-10T10:46:36.326Z,15390.72
2023-05-10T10:47:36.837Z,15390.72
2023-05-10T10:48:37.087Z,15390.72
2023-05-10T10:49:37.241Z,15390.72
2023-05-10T10:50:37.414Z,15390.72
2023-05-10T10:51:37.573Z,15390.72
2023-05-10T10:52:37.741Z,15390.72
2023-05-10T10:53:37.920Z,15390.72
2023-05-10T10:54:38.080Z,15390.72
2023-05-10T10:55:38.253Z,15390.72
2023-05-10T10:56:38.458Z,15390.72
2023-05-10T10:57:39.120Z,15390.72
2023-05-10T10:58:39.312Z,15390.72
2023-05-10T10:59:39.472Z,15390.72
2023-05-10T11:00:39.690Z,15390.72
2023-05-10T11:01:40.185Z,15390.72
2023-05-10T11:02:40.519Z,10598.4
2023-05-10T11:03:40.773Z,10598.4
2023-05-10T11:04:41.062Z,10598.4
2023-05-10T11:05:41.546Z,7255.04
2023-05-10T11:06:41.745Z,7255.04
2023-05-10T11:07:41.914Z,7255.04
2023-05-10T11:08:42.107Z,5017.6
2023-05-10T11:09:42.271Z,5017.6
2023-05-10T11:10:42.452Z,3499.52
2023-05-10T11:11:42.639Z,3499.52
2023-05-10T11:12:42.837Z,3499.52
2023-05-10T11:13:42.997Z,3499.52
2023-05-10T11:14:43.226Z,2419.2
2023-05-10T11:15:43.396Z,2419.2
2023-05-10T11:16:43.562Z,2419.2
2023-05-10T11:17:44.021Z,2419.2
2023-05-10T11:18:44.268Z,2419.2
2023-05-10T11:19:44.604Z,2419.2
2023-05-10T11:20:44.777Z,2419.2
2023-05-10T11:21:44.934Z,2419.2
2023-05-10T11:22:45.104Z,2419.2
2023-05-10T11:23:45.261Z,2419.2
2023-05-10T11:24:45.412Z,2419.2
2023-05-10T11:25:45.580Z,3179.52
2023-05-10T11:26:45.741Z,4218.88
2023-05-10T11:27:45.904Z,4218.88
2023-05-10T11:28:46.062Z,5555.2
2023-05-10T11:29:46.225Z,5555.2
2023-05-10T11:30:46.471Z,7296
2023-05-10T11:31:46.752Z,17991.68
2023-05-10T11:32:46.975Z,17991.68
2023-05-10T11:33:47.250Z,17991.68
2023-05-10T11:34:47.425Z,17991.68
2023-05-10T11:35:47.581Z,17991.68
2023-05-10T11:36:47.735Z,17991.68
2023-05-10T11:37:48.095Z,17991.68
2023-05-10T11:38:48.247Z,17991.68
2023-05-10T11:39:48.467Z,12595.2
2023-05-10T11:40:48.688Z,12595.2
2023-05-10T11:41:48.840Z,12595.2
2023-05-10T11:42:49.012Z,12595.2
2023-05-10T11:43:49.188Z,12595.2
2023-05-10T11:44:49.377Z,8637.44
2023-05-10T11:45:49.783Z,8637.44
2023-05-10T11:46:50.109Z,6036.48
2023-05-10T11:47:50.473Z,6036.48
2023-05-10T11:48:50.736Z,6036.48
2023-05-10T11:49:50.886Z,4177.92
2023-05-10T11:50:51.050Z,4177.92
2023-05-10T11:51:51.219Z,4177.92
2023-05-10T11:52:51.359Z,4177.92
2023-05-10T11:53:51.514Z,4177.92
2023-05-10T11:54:51.834Z,4177.92
2023-05-10T11:55:52.029Z,4177.92
2023-05-10T11:56:52.184Z,4177.92
2023-05-10T11:57:52.371Z,4177.92
2023-05-10T11:58:52.530Z,4177.92
2023-05-10T11:59:52.699Z,4177.92
2023-05-10T12:00:52.942Z,4177.92
2023-05-10T12:01:53.090Z,5457.92
2023-05-10T12:02:53.344Z,5457.92
2023-05-10T12:03:53.873Z,5457.92
2023-05-10T12:04:54.745Z,5457.92
2023-05-10T12:05:55.144Z,5457.92
2023-05-10T12:06:55.317Z,5457.92
2023-05-10T12:07:55.514Z,7096.32
2023-05-10T12:08:55.679Z,7096.32
2023-05-10T12:09:55.885Z,7096.32
2023-05-10T12:10:56.043Z,9359.36
2023-05-10T12:11:56.199Z,9359.36
2023-05-10T12:12:56.351Z,12195.84
2023-05-10T12:13:56.509Z,15994.88
2023-05-10T12:14:56.673Z,15994.88
2023-05-10T12:15:56.850Z,15994.88
2023-05-10T12:16:57.092Z,15994.88
2023-05-10T12:17:57.308Z,15994.88
2023-05-10T12:18:57.715Z,15994.88
2023-05-10T12:19:58.027Z,15994.88
2023-05-10T12:20:58.178Z,15994.88
2023-05-10T12:21:58.340Z,10997.76
2023-05-10T12:23:00.463Z,10997.76
2023-05-10T12:24:01.006Z,10997.76
2023-05-10T12:25:01.180Z,7598.08
2023-05-10T12:26:01.332Z,7598.08
2023-05-10T12:27:01.497Z,7598.08
2023-05-10T12:28:01.657Z,7598.08
2023-05-10T12:29:01.893Z,7598.08
2023-05-10T12:30:02.048Z,7598.08
2023-05-10T12:31:02.213Z,7598.08
2023-05-10T12:32:02.444Z,7598.08
2023-05-10T12:33:02.784Z,7598.08
2023-05-10T12:34:03.104Z,7598.08
2023-05-10T12:35:03.279Z,7598.08
2023-05-10T12:36:03.473Z,7598.08
2023-05-10T12:37:03.659Z,9978.88
2023-05-10T12:38:03.867Z,13199.36
2023-05-10T12:39:04.020Z,17397.76
2023-05-10T12:40:04.195Z,17397.76
2023-05-10T12:41:04.471Z,17397.76
2023-05-10T12:42:04.959Z,17397.76
2023-05-10T12:43:05.124Z,17397.76
2023-05-10T12:44:05.302Z,17397.76
2023-05-10T12:45:05.458Z,17397.76
2023-05-10T12:46:05.627Z,17397.76
2023-05-10T12:47:05.915Z,17397.76
2023-05-10T12:48:06.148Z,17397.76
2023-05-10T12:49:09.265Z,17397.76
2023-05-10T12:50:10.238Z,13199.36
2023-05-10T12:51:10.415Z,11991.04
2023-05-10T12:52:10.631Z,11991.04
2023-05-10T12:53:10.796Z,11991.04
2023-05-10T12:54:10.958Z,11991.04
2023-05-10T12:55:11.124Z,11991.04
2023-05-10T12:56:11.290Z,11991.04
2023-05-10T12:57:11.458Z,11991.04
2023-05-10T12:58:13.995Z,11991.04
2023-05-10T12:59:38.120Z,11796.48
2023-05-10T13:00:38.603Z,11796.48
2023-05-10T13:01:38.945Z,11796.48
2023-05-10T13:02:39.638Z,40591.36
2023-05-10T13:03:39.931Z,40591.36
2023-05-10T13:04:40.306Z,40591.36
2023-05-10T13:05:40.723Z,40591.36